Terminal Aerodrome Forecast
Issued by NWS

Home | Current Version | Previous Version | Text Only | Print | Product List | Glossary On
Versions: 1 2 3 4 5 6 7 8 9 10 11 12 13 14 15 16 17 18 19 20 21 22 23 24
000
FTUS44 KOUN 262334
TAFPNC
TAF
KPNC 262334Z 2700/2724 12016G22KT P6SM BKN045 OVC080
     FM270100 08012G18KT P6SM VCTS OVC040CB
      TEMPO 2702/2706 3SM TSRA BKN008 OVC015CB
     FM270900 35013KT P6SM OVC012
     FM271900 36007KT P6SM SCT250=

USA.gov is the U.S. government's official web portal to all federal, state and local government web resources and services.